createdAt,value
2023-02-18T00:00:42.483Z,77.30
2023-02-18T00:01:42.484Z,77.11
2023-02-18T00:02:42.537Z,77.49
2023-02-18T00:03:43.515Z,76.92
2023-02-18T00:04:42.467Z,77.58
2023-02-18T00:05:42.455Z,76.92
2023-02-18T00:06:42.458Z,77.01
2023-02-18T00:07:42.443Z,77.39
2023-02-18T00:08:42.442Z,77.53
2023-02-18T00:09:43.484Z,77.20
2023-02-18T00:10:42.432Z,77.20
2023-02-18T00:11:42.414Z,77.49
2023-02-18T00:12:42.511Z,77.20
2023-02-18T00:13:42.408Z,77.39
2023-02-18T00:14:42.394Z,77.20
2023-02-18T00:15:43.424Z,77.49
2023-02-18T00:16:42.377Z,77.68
2023-02-18T00:17:42.384Z,77.77
2023-02-18T00:18:42.421Z,77.68
2023-02-18T00:19:42.414Z,77.77
2023-02-18T00:20:42.366Z,77.68
2023-02-18T00:21:43.371Z,77.77
2023-02-18T00:22:42.474Z,78.06
2023-02-18T00:23:43.932Z,77.87
2023-02-18T00:24:42.378Z,77.87
2023-02-18T00:25:42.322Z,77.87
2023-02-18T00:26:42.345Z,78.16
2023-02-18T00:27:43.330Z,78.06
2023-02-18T00:28:42.315Z,78.16
2023-02-18T00:29:42.317Z,77.87
2023-02-18T00:30:42.330Z,78.06
2023-02-18T00:31:42.500Z,78.72
2023-02-18T00:32:42.313Z,78.44
2023-02-18T00:33:43.292Z,78.53
2023-02-18T00:34:42.280Z,79.11
2023-02-18T00:35:42.272Z,78.44
2023-02-18T00:36:42.267Z,79.30
2023-02-18T00:37:42.272Z,78.91
2023-02-18T00:38:42.259Z,79.11
2023-02-18T00:39:43.265Z,79.30
2023-02-18T00:40:42.233Z,79.11
2023-02-18T00:41:42.241Z,78.91
2023-02-18T00:42:42.226Z,78.91
2023-02-18T00:43:42.220Z,79.11
2023-02-18T00:44:42.216Z,79.39
2023-02-18T00:45:43.216Z,79.11
2023-02-18T00:46:42.262Z,79.01
2023-02-18T00:47:42.190Z,79.11
2023-02-18T00:48:42.189Z,79.20
2023-02-18T00:49:42.176Z,79.20
2023-02-18T00:50:42.186Z,79.20
2023-02-18T00:51:43.187Z,79.39
2023-02-18T00:52:42.183Z,79.20
2023-02-18T00:53:42.193Z,79.06
2023-02-18T00:54:42.192Z,79.25
2023-02-18T00:55:42.154Z,79.16
2023-02-18T00:56:42.137Z,79.11
2023-02-18T00:57:43.147Z,78.97
2023-02-18T00:58:42.121Z,79.20
2023-02-18T00:59:42.129Z,79.06
2023-02-18T01:00:42.122Z,79.25
2023-02-18T01:01:42.165Z,79.06
2023-02-18T01:02:42.145Z,79.35
2023-02-18T01:03:43.109Z,78.97
2023-02-18T01:04:42.165Z,79.39
2023-02-18T01:05:42.093Z,78.97
2023-02-18T01:06:42.088Z,79.06
2023-02-18T01:07:42.102Z,79.06
2023-02-18T01:08:42.056Z,79.35
2023-02-18T01:09:43.065Z,79.25
2023-02-18T01:10:42.049Z,79.73
2023-02-18T01:11:42.074Z,79.16
2023-02-18T01:12:42.028Z,79.16
2023-02-18T01:13:42.046Z,79.35
2023-02-18T01:14:42.041Z,79.44
2023-02-18T01:15:43.127Z,79.25
2023-02-18T01:16:42.006Z,79.35
2023-02-18T01:17:42.043Z,79.25
2023-02-18T01:18:41.991Z,79.06
2023-02-18T01:19:41.991Z,79.16
2023-02-18T01:20:41.993Z,79.16
2023-02-18T01:21:42.983Z,79.16
2023-02-18T01:22:41.997Z,79.06
2023-02-18T01:23:41.983Z,78.97
2023-02-18T01:24:41.971Z,79.44
2023-02-18T01:25:41.999Z,78.97
2023-02-18T01:26:41.948Z,79.16
2023-02-18T01:27:42.950Z,78.88
2023-02-18T01:28:41.929Z,79.06
2023-02-18T01:29:41.928Z,79.73
2023-02-18T01:30:41.973Z,79.83
2023-02-18T01:31:42.035Z,79.83
2023-02-18T01:32:41.902Z,79.83
2023-02-18T01:33:42.912Z,79.73
2023-02-18T01:34:41.893Z,79.92
2023-02-18T01:35:41.885Z,79.73
2023-02-18T01:36:41.881Z,79.83
2023-02-18T01:37:41.894Z,79.83
2023-02-18T01:38:41.892Z,79.73
2023-02-18T01:39:42.862Z,79.44
2023-02-18T01:40:41.918Z,79.54
2023-02-18T01:41:41.860Z,79.54
2023-02-18T01:42:41.855Z,79.44
2023-02-18T01:43:41.831Z,79.44
2023-02-18T01:44:41.855Z,79.92
2023-02-18T01:45:42.834Z,80.11
2023-02-18T01:46:41.881Z,80.21
2023-02-18T01:47:41.795Z,80.30
2023-02-18T01:48:41.803Z,80.49
2023-02-18T01:49:41.792Z,80.30
2023-02-18T01:50:41.780Z,80.49
2023-02-18T01:51:42.806Z,80.02
2023-02-18T01:52:41.759Z,80.30
2023-02-18T01:53:41.767Z,80.11
2023-02-18T01:54:41.746Z,80.21
2023-02-18T01:55:41.738Z,80.49
2023-02-18T01:56:41.737Z,80.21
2023-02-18T01:57:42.744Z,80.30
2023-02-18T01:58:41.731Z,80.02
2023-02-18T01:59:41.718Z,80.68
2023-02-18T02:00:41.748Z,80.40
2023-02-18T02:01:41.719Z,80.49
2023-02-18T02:02:41.707Z,80.30
2023-02-18T02:03:42.695Z,80.21
2023-02-18T02:04:41.692Z,80.68
2023-02-18T02:05:41.678Z,80.21
2023-02-18T02:06:41.678Z,80.58
2023-02-18T02:07:41.660Z,80.30
2023-02-18T02:08:41.680Z,80.40
2023-02-18T02:09:42.671Z,80.68
2023-02-18T02:10:41.644Z,80.49
2023-02-18T02:11:41.637Z,80.40
2023-02-18T02:12:41.646Z,80.40
2023-02-18T02:13:41.636Z,80.40
2023-02-18T02:14:41.620Z,80.40
2023-02-18T02:15:42.634Z,80.87
2023-02-18T02:16:41.701Z,80.40
2023-02-18T02:17:41.616Z,80.68
2023-02-18T02:18:41.585Z,80.87
2023-02-18T02:19:48.767Z,81.06
2023-02-18T02:21:45.589Z,80.40
2023-02-18T02:22:45.556Z,80.58
2023-02-18T02:24:49.630Z,80.58
2023-02-18T02:25:49.640Z,80.21
2023-02-18T02:26:49.571Z,80.49
2023-02-18T02:27:49.541Z,80.74
2023-02-18T02:28:49.534Z,80.87
2023-02-18T02:29:49.561Z,80.30
2023-02-18T02:30:49.535Z,81.12
2023-02-18T02:31:49.634Z,80.83
2023-02-18T02:32:49.516Z,80.83
2023-02-18T02:33:49.484Z,81.12
2023-02-18T02:34:49.486Z,80.93
2023-02-18T02:35:49.472Z,80.55
2023-02-18T02:36:49.478Z,81.21
2023-02-18T02:37:49.516Z,80.96
2023-02-18T02:38:49.457Z,80.58
2023-02-18T02:39:49.453Z,80.55
2023-02-18T02:40:49.447Z,81.25
2023-02-18T02:41:49.448Z,81.06
2023-02-18T02:42:49.450Z,81.06
2023-02-18T02:43:49.437Z,80.87
2023-02-18T02:44:49.420Z,81.16
2023-02-18T02:45:49.459Z,81.06
2023-02-18T02:46:49.411Z,80.58
2023-02-18T02:47:49.414Z,80.87
2023-02-18T02:48:49.395Z,80.87
2023-02-18T02:49:49.399Z,81.16
2023-02-18T02:50:49.414Z,80.77
2023-02-18T02:51:49.389Z,80.93
2023-02-18T02:52:49.379Z,80.77
2023-02-18T02:53:49.366Z,81.06
2023-02-18T02:54:49.406Z,80.35
2023-02-18T02:55:49.351Z,80.16
2023-02-18T02:56:49.460Z,80.16
2023-02-18T02:57:49.361Z,80.35
2023-02-18T02:58:49.362Z,80.35
2023-02-18T02:59:49.318Z,80.58
2023-02-18T03:00:49.391Z,80.64
2023-02-18T03:01:49.323Z,80.64
2023-02-18T03:02:49.398Z,80.40
2023-02-18T03:03:49.325Z,80.64
2023-02-18T03:04:49.296Z,79.92
2023-02-18T03:05:49.283Z,80.68
2023-02-18T03:06:49.287Z,80.68
2023-02-18T03:07:49.305Z,80.02
2023-02-18T03:08:49.263Z,79.63
2023-02-18T03:09:49.259Z,79.54
2023-02-18T03:10:49.251Z,79.60
2023-02-18T03:11:49.240Z,79.69
2023-02-18T03:12:49.250Z,79.50
2023-02-18T03:13:49.238Z,79.79
2023-02-18T03:14:49.241Z,79.97
2023-02-18T03:15:49.209Z,79.60
2023-02-18T03:16:49.248Z,79.79
2023-02-18T03:17:49.192Z,79.69
2023-02-18T03:18:49.190Z,79.69
2023-02-18T03:19:49.198Z,79.69
2023-02-18T03:20:49.181Z,79.50
2023-02-18T03:21:49.221Z,79.69
2023-02-18T03:22:49.202Z,79.69
2023-02-18T03:23:49.213Z,79.97
2023-02-18T03:24:49.149Z,79.50
2023-02-18T03:25:49.139Z,79.83
2023-02-18T03:26:49.136Z,79.88
2023-02-18T03:27:49.132Z,79.16
2023-02-18T03:28:49.222Z,79.16
2023-02-18T03:29:49.125Z,79.22
2023-02-18T03:30:49.110Z,79.22
2023-02-18T03:31:49.224Z,78.59
2023-02-18T03:32:49.113Z,78.97
2023-02-18T03:33:49.097Z,79.31
2023-02-18T03:34:49.096Z,78.69
2023-02-18T03:35:49.078Z,79.16
2023-02-18T03:36:49.075Z,79.06
2023-02-18T03:37:49.113Z,79.06
2023-02-18T03:38:49.055Z,78.36
2023-02-18T03:39:49.054Z,78.55
2023-02-18T03:40:49.042Z,78.64
2023-02-18T03:41:49.048Z,79.03
2023-02-18T03:42:49.042Z,79.03
2023-02-18T03:43:49.055Z,79.03
2023-02-18T03:44:49.017Z,78.83
2023-02-18T03:45:49.080Z,78.74
2023-02-18T03:46:48.996Z,78.36
2023-02-18T03:47:48.989Z,78.27
2023-02-18T03:48:48.996Z,78.78
2023-02-18T03:49:48.980Z,78.64
2023-02-18T03:50:48.976Z,77.79
2023-02-18T03:51:48.959Z,78.83
2023-02-18T03:52:48.957Z,78.64
2023-02-18T03:53:48.961Z,78.17
2023-02-18T03:54:48.940Z,77.98
2023-02-18T03:55:48.938Z,77.98
2023-02-18T03:56:48.927Z,78.55
2023-02-18T03:57:48.924Z,78.64
2023-02-18T03:58:48.948Z,78.55
2023-02-18T03:59:48.939Z,78.27
2023-02-18T04:00:48.897Z,78.64
2023-02-18T04:01:48.952Z,78.08
2023-02-18T04:02:48.900Z,78.17
2023-02-18T04:03:48.890Z,78.27
2023-02-18T04:04:48.868Z,77.79
2023-02-18T04:05:48.871Z,78.08
2023-02-18T04:06:48.857Z,77.79
2023-02-18T04:07:48.849Z,78.08
2023-02-18T04:08:48.850Z,77.89
2023-02-18T04:09:48.833Z,77.79
2023-02-18T04:10:48.832Z,78.08
2023-02-18T04:11:48.839Z,77.60
2023-02-18T04:12:48.859Z,78.27
2023-02-18T04:13:48.808Z,78.08
2023-02-18T04:14:48.809Z,78.17
2023-02-18T04:15:48.790Z,77.98
2023-02-18T04:16:48.806Z,78.55
2023-02-18T04:17:48.781Z,78.36
2023-02-18T04:18:48.792Z,78.27
2023-02-18T04:19:48.779Z,78.17
2023-02-18T04:20:48.799Z,78.17
2023-02-18T04:21:48.778Z,77.98
2023-02-18T04:22:48.754Z,78.64
2023-02-18T04:23:48.739Z,78.55
2023-02-18T04:24:48.734Z,78.74
2023-02-18T04:25:48.724Z,78.55
2023-02-18T04:26:48.727Z,78.74
2023-02-18T04:27:48.724Z,78.83
2023-02-18T04:28:48.720Z,78.74
2023-02-18T04:29:48.693Z,78.08
2023-02-18T04:30:48.820Z,77.98
2023-02-18T04:31:48.826Z,78.55
2023-02-18T04:32:48.676Z,78.55
2023-02-18T04:33:48.689Z,78.27
2023-02-18T04:34:48.673Z,78.55
2023-02-18T04:35:48.684Z,78.45
2023-02-18T04:36:48.651Z,78.55
2023-02-18T04:37:48.645Z,78.64
2023-02-18T04:38:48.635Z,78.27
2023-02-18T04:39:48.641Z,77.89
2023-02-18T04:40:48.622Z,77.98
2023-02-18T04:41:48.619Z,78.45
2023-02-18T04:42:48.628Z,78.64
2023-02-18T04:43:48.598Z,78.27
2023-02-18T04:44:48.591Z,78.55
2023-02-18T04:45:48.612Z,78.74
2023-02-18T04:46:48.580Z,78.64
2023-02-18T04:47:48.579Z,78.83
2023-02-18T04:48:48.617Z,78.45
2023-02-18T04:49:48.563Z,78.27
2023-02-18T04:50:48.591Z,78.36
2023-02-18T04:51:48.549Z,78.55
2023-02-18T04:52:48.537Z,78.74
2023-02-18T04:53:48.546Z,78.55
2023-02-18T04:54:48.533Z,78.55
2023-02-18T04:55:48.519Z,78.45
2023-02-18T04:56:48.511Z,78.45
2023-02-18T04:57:48.545Z,78.55
2023-02-18T04:58:48.501Z,78.27
2023-02-18T04:59:48.496Z,78.45
2023-02-18T05:00:48.501Z,78.36
2023-02-18T05:01:48.485Z,78.64
2023-02-18T05:02:48.480Z,78.45
2023-02-18T05:03:48.563Z,78.64
2023-02-18T05:04:48.460Z,78.74
2023-02-18T05:05:48.468Z,78.55
2023-02-18T05:06:48.471Z,78.55
2023-02-18T05:07:48.432Z,78.55
2023-02-18T05:08:48.431Z,78.64
2023-02-18T05:09:48.463Z,78.36
2023-02-18T05:10:48.422Z,79.03
2023-02-18T05:11:48.415Z,79.03
2023-02-18T05:12:48.404Z,78.36
2023-02-18T05:13:48.407Z,78.64
2023-02-18T05:14:48.400Z,78.55
2023-02-18T05:15:48.463Z,78.27
2023-02-18T05:16:48.422Z,78.45
2023-02-18T05:17:48.372Z,78.55
2023-02-18T05:18:48.380Z,78.45
2023-02-18T05:19:48.362Z,77.98
2023-02-18T05:20:48.388Z,77.89
2023-02-18T05:21:48.338Z,77.98
2023-02-18T05:22:48.340Z,77.89
2023-02-18T05:23:48.356Z,77.89
2023-02-18T05:24:48.326Z,78.17
2023-02-18T05:25:48.336Z,77.79
2023-02-18T05:26:48.356Z,77.60
2023-02-18T05:27:48.334Z,78.17
2023-02-18T05:28:48.320Z,77.98
2023-02-18T05:29:48.283Z,77.98
2023-02-18T05:30:48.328Z,77.83
2023-02-18T05:31:48.483Z,78.02
2023-02-18T05:32:48.278Z,78.02
2023-02-18T05:33:48.286Z,77.45
2023-02-18T05:34:48.275Z,77.92
2023-02-18T05:35:48.247Z,77.70
2023-02-18T05:36:48.243Z,77.22
2023-02-18T05:37:48.238Z,76.93
2023-02-18T05:38:48.224Z,77.12
2023-02-18T05:39:48.241Z,76.93
2023-02-18T05:40:48.210Z,77.12
2023-02-18T05:41:48.215Z,77.31
2023-02-18T05:42:48.242Z,77.41
2023-02-18T05:43:48.200Z,77.12
2023-02-18T05:44:48.195Z,77.26
2023-02-18T05:45:48.178Z,77.26
2023-02-18T05:46:48.238Z,77.36
2023-02-18T05:47:48.171Z,77.36
2023-02-18T05:48:48.160Z,77.17
2023-02-18T05:49:48.164Z,77.45
2023-02-18T05:50:48.187Z,76.88
2023-02-18T05:51:48.155Z,77.17
2023-02-18T05:52:48.132Z,76.97
2023-02-18T05:53:48.203Z,76.78
2023-02-18T05:54:48.201Z,76.97
2023-02-18T05:55:48.135Z,76.59
2023-02-18T05:56:48.144Z,76.56
2023-02-18T05:57:48.141Z,76.65
2023-02-18T05:58:48.091Z,76.65
2023-02-18T05:59:48.083Z,77.03
2023-02-18T06:00:48.200Z,77.12
2023-02-18T06:01:48.076Z,76.84
2023-02-18T06:02:48.122Z,76.75
2023-02-18T06:03:48.062Z,76.75
2023-02-18T06:04:48.051Z,76.84
2023-02-18T06:05:48.111Z,77.12
2023-02-18T06:06:48.064Z,76.65
2023-02-18T06:07:48.023Z,77.22
2023-02-18T06:08:48.024Z,76.84
2023-02-18T06:09:48.027Z,76.59
2023-02-18T06:10:48.011Z,76.88
2023-02-18T06:11:48.021Z,77.45
2023-02-18T06:12:48.042Z,77.55
2023-02-18T06:13:47.988Z,77.36
2023-02-18T06:14:47.977Z,77.31
2023-02-18T06:15:48.010Z,76.88
2023-02-18T06:16:47.966Z,76.88
2023-02-18T06:17:47.969Z,76.69
2023-02-18T06:18:47.949Z,77.07
2023-02-18T06:19:47.945Z,76.78
2023-02-18T06:20:47.936Z,76.59
2023-02-18T06:21:47.952Z,76.69
2023-02-18T06:22:47.933Z,76.69
2023-02-18T06:23:47.929Z,76.69
2023-02-18T06:24:47.910Z,76.84
2023-02-18T06:25:47.924Z,77.07
2023-02-18T06:26:47.899Z,77.45
2023-02-18T06:27:47.889Z,77.55
2023-02-18T06:28:47.881Z,76.97
2023-02-18T06:29:47.880Z,77.26
2023-02-18T06:30:47.935Z,77.36
2023-02-18T06:31:47.970Z,77.36
2023-02-18T06:32:47.893Z,77.17
2023-02-18T06:33:47.858Z,76.78
2023-02-18T06:34:47.844Z,77.17
2023-02-18T06:35:47.845Z,77.07
2023-02-18T06:36:47.845Z,77.36
2023-02-18T06:37:47.832Z,77.36
2023-02-18T06:38:47.860Z,77.36
2023-02-18T06:39:47.820Z,76.97
2023-02-18T06:40:47.812Z,77.26
2023-02-18T06:41:47.804Z,77.55
2023-02-18T06:42:47.785Z,77.45
2023-02-18T06:43:47.779Z,77.45
2023-02-18T06:44:47.766Z,77.92
2023-02-18T06:45:47.775Z,77.73
2023-02-18T06:46:47.815Z,78.11
2023-02-18T06:47:47.755Z,78.02
2023-02-18T06:48:47.777Z,77.26
2023-02-18T06:49:47.766Z,77.17
2023-02-18T06:50:47.752Z,78.02
2023-02-18T06:51:47.722Z,77.73
2023-02-18T06:52:47.719Z,78.11
2023-02-18T06:53:47.762Z,77.92
2023-02-18T06:54:47.709Z,77.92
2023-02-18T06:55:47.697Z,77.92
2023-02-18T06:56:47.687Z,77.83
2023-02-18T06:57:47.716Z,77.64
2023-02-18T06:58:47.690Z,78.02
2023-02-18T06:59:47.674Z,77.64
2023-02-18T07:00:47.694Z,77.83
2023-02-18T07:01:47.661Z,77.55
2023-02-18T07:02:47.659Z,77.55
2023-02-18T07:03:50.056Z,77.73
2023-02-18T07:04:47.651Z,78.02
2023-02-18T07:05:47.634Z,77.73
2023-02-18T07:06:47.629Z,77.36
2023-02-18T07:07:47.617Z,77.92
2023-02-18T07:08:47.608Z,77.64
2023-02-18T07:09:47.600Z,77.64
2023-02-18T07:10:47.606Z,77.83
2023-02-18T07:11:47.607Z,77.92
2023-02-18T07:12:47.575Z,77.45
2023-02-18T07:13:47.592Z,77.36
2023-02-18T07:14:47.565Z,77.55
2023-02-18T07:15:47.575Z,77.26
2023-02-18T07:16:47.607Z,77.17
2023-02-18T07:17:47.549Z,77.17
2023-02-18T07:18:47.549Z,77.36
2023-02-18T07:19:47.550Z,77.36
2023-02-18T07:20:47.530Z,77.92
2023-02-18T07:21:47.532Z,77.83
2023-02-18T07:22:47.524Z,78.11
2023-02-18T07:23:47.528Z,78.21
2023-02-18T07:24:47.518Z,78.78
2023-02-18T07:25:47.508Z,78.78
2023-02-18T07:26:47.494Z,78.11
2023-02-18T07:27:47.487Z,78.11
2023-02-18T07:28:47.484Z,77.92
2023-02-18T07:29:47.483Z,78.02
2023-02-18T07:30:47.471Z,78.11
2023-02-18T07:31:47.531Z,77.92
2023-02-18T07:32:47.461Z,78.21
2023-02-18T07:33:47.444Z,78.59
2023-02-18T07:34:47.437Z,78.59
2023-02-18T07:35:47.450Z,79.06
2023-02-18T07:36:47.436Z,79.25
2023-02-18T07:37:47.488Z,79.44
2023-02-18T07:38:47.433Z,79.44
2023-02-18T07:39:47.419Z,79.54
2023-02-18T07:40:47.393Z,79.63
2023-02-18T07:41:47.391Z,80.11
2023-02-18T07:42:47.392Z,80.30
2023-02-18T07:43:47.375Z,80.40
2023-02-18T07:44:47.364Z,80.21
2023-02-18T07:45:47.420Z,80.68
2023-02-18T07:46:48.485Z,81.06
2023-02-18T07:47:47.357Z,80.87
2023-02-18T07:48:47.340Z,81.35
2023-02-18T07:49:47.349Z,81.63
2023-02-18T07:50:47.329Z,81.73
2023-02-18T07:51:47.359Z,81.73
2023-02-18T07:52:47.342Z,82.01
2023-02-18T07:53:47.324Z,81.82
2023-02-18T07:54:47.316Z,82.29
2023-02-18T07:55:47.305Z,82.49
2023-02-18T07:56:47.291Z,82.49
2023-02-18T07:57:47.318Z,82.01
2023-02-18T07:58:47.451Z,82.39
2023-02-18T07:59:47.326Z,82.87
2023-02-18T08:00:47.288Z,82.29
2023-02-18T08:01:47.324Z,83.34
2023-02-18T08:02:47.253Z,83.34
2023-02-18T08:03:47.304Z,83.62
2023-02-18T08:04:47.235Z,83.82
2023-02-18T08:05:47.241Z,84.10
2023-02-18T08:06:47.352Z,84.39
2023-02-18T08:07:47.221Z,84.01
2023-02-18T08:08:47.249Z,85.24
2023-02-18T08:09:47.279Z,84.86
2023-02-18T08:10:47.200Z,85.15
2023-02-18T08:11:47.198Z,85.05
2023-02-18T08:12:47.193Z,85.81
2023-02-18T08:13:47.455Z,84.95
2023-02-18T08:14:47.178Z,85.15
2023-02-18T08:15:47.185Z,84.95
2023-02-18T08:16:47.199Z,85.62
2023-02-18T08:17:47.252Z,85.43
2023-02-18T08:18:47.145Z,85.62
2023-02-18T08:19:47.174Z,85.62
2023-02-18T08:20:54.328Z,85.43
2023-02-18T08:22:51.145Z,86.10
2023-02-18T08:23:51.115Z,86.19
2023-02-18T08:25:55.302Z,86.10
2023-02-18T08:27:00.828Z,86.10
2023-02-18T08:28:59.074Z,85.91
2023-02-18T08:29:59.093Z,85.81
2023-02-18T08:31:52.083Z,86.67
2023-02-18T08:32:51.983Z,86.67
2023-02-18T08:34:55.927Z,87.24
2023-02-18T08:35:55.916Z,87.52
2023-02-18T08:38:00.001Z,87.81
2023-02-18T08:38:59.938Z,87.90
2023-02-18T08:41:03.939Z,88.57
2023-02-18T08:42:03.896Z,88.47
2023-02-18T08:44:07.930Z,88.95
2023-02-18T08:45:07.887Z,89.61
2023-02-18T08:46:07.923Z,89.33
2023-02-18T08:48:16.546Z,90.19
2023-02-18T08:48:19.103Z,89.71
2023-02-18T08:49:07.889Z,90.19
2023-02-18T08:50:07.859Z,90.00
2023-02-18T08:51:08.065Z,90.37
2023-02-18T08:52:07.836Z,90.66
2023-02-18T08:53:07.834Z,90.19
2023-02-18T08:54:07.827Z,90.75
2023-02-18T08:55:07.814Z,90.56
2023-02-18T08:56:07.816Z,90.56
2023-02-18T08:57:07.801Z,90.75
2023-02-18T08:58:07.848Z,90.56
2023-02-18T08:59:07.804Z,90.75
2023-02-18T09:00:07.787Z,90.28
2023-02-18T09:01:08.089Z,90.37
2023-02-18T09:02:07.777Z,90.37
2023-02-18T09:03:07.777Z,90.47
2023-02-18T09:04:07.924Z,91.13
2023-02-18T09:05:07.784Z,90.85
2023-02-18T09:06:07.810Z,91.52
2023-02-18T09:07:07.751Z,91.23
2023-02-18T09:08:07.733Z,91.23
2023-02-18T09:09:07.719Z,91.52
2023-02-18T09:10:07.886Z,91.23
2023-02-18T09:11:08.050Z,91.04
2023-02-18T09:12:07.712Z,91.13
2023-02-18T09:13:07.700Z,91.42
2023-02-18T09:14:07.700Z,91.23
2023-02-18T09:15:07.688Z,91.71
2023-02-18T09:16:07.725Z,91.04
2023-02-18T09:17:07.707Z,91.42
2023-02-18T09:18:07.668Z,91.33
2023-02-18T09:19:07.686Z,91.33
2023-02-18T09:20:07.658Z,91.52
2023-02-18T09:21:08.081Z,91.99
2023-02-18T09:22:07.645Z,92.37
2023-02-18T09:23:07.643Z,92.18
2023-02-18T09:24:07.625Z,92.66
2023-02-18T09:25:07.632Z,92.46
2023-02-18T09:26:07.616Z,92.46
2023-02-18T09:27:09.260Z,91.80
2023-02-18T09:28:07.607Z,91.61
2023-02-18T09:29:07.620Z,91.89
2023-02-18T09:30:07.614Z,92.27
2023-02-18T09:31:08.306Z,92.08
2023-02-18T09:32:07.663Z,92.85
2023-02-18T09:33:07.590Z,92.56
2023-02-18T09:34:07.579Z,93.04
2023-02-18T09:35:07.559Z,93.23
2023-02-18T09:36:07.544Z,93.23
2023-02-18T09:37:07.536Z,93.23
2023-02-18T09:38:07.596Z,93.51
2023-02-18T09:39:07.531Z,93.13
2023-02-18T09:40:07.534Z,93.04
2023-02-18T09:41:07.889Z,93.32
2023-02-18T09:42:07.515Z,93.04
2023-02-18T09:43:07.503Z,93.04
2023-02-18T09:44:07.506Z,92.85
2023-02-18T09:45:07.494Z,93.23
2023-02-18T09:46:07.538Z,93.23
2023-02-18T09:47:07.494Z,93.23
2023-02-18T09:48:07.482Z,92.94
2023-02-18T09:49:07.463Z,93.79
2023-02-18T09:50:07.463Z,93.60
2023-02-18T09:51:07.573Z,93.89
2023-02-18T09:52:07.548Z,93.70
2023-02-18T09:53:07.452Z,94.65
2023-02-18T09:54:07.430Z,94.46
2023-02-18T09:55:07.450Z,94.46
2023-02-18T09:56:07.437Z,94.56
2023-02-18T09:57:07.414Z,94.37
2023-02-18T09:58:07.407Z,94.37
2023-02-18T09:59:07.409Z,94.56
2023-02-18T10:00:07.404Z,94.46
2023-02-18T10:01:07.824Z,94.56
2023-02-18T10:02:07.376Z,94.46
2023-02-18T10:03:07.371Z,94.74
2023-02-18T10:04:07.360Z,94.74
2023-02-18T10:05:07.361Z,94.93
2023-02-18T10:06:07.650Z,93.99
2023-02-18T10:07:07.352Z,94.46
2023-02-18T10:08:07.464Z,95.32
2023-02-18T10:09:07.363Z,94.84
2023-02-18T10:10:07.325Z,95.22
2023-02-18T10:11:07.747Z,95.12
2023-02-18T10:12:07.332Z,95.03
2023-02-18T10:13:07.322Z,95.03
2023-02-18T10:14:07.314Z,95.12
2023-02-18T10:15:07.294Z,95.70
2023-02-18T10:16:07.706Z,95.51
2023-02-18T10:17:07.295Z,95.79
2023-02-18T10:18:07.279Z,96.08
2023-02-18T10:19:07.284Z,96.17
2023-02-18T10:20:08.461Z,96.65
2023-02-18T10:21:07.619Z,97.03
2023-02-18T10:22:07.264Z,97.50
2023-02-18T10:23:07.244Z,97.22
2023-02-18T10:24:07.252Z,97.12
2023-02-18T10:25:07.237Z,97.60
2023-02-18T10:26:07.652Z,97.60
2023-02-18T10:27:07.243Z,97.50
2023-02-18T10:28:07.211Z,97.31
2023-02-18T10:29:07.210Z,98.26
2023-02-18T10:30:07.256Z,98.07
2023-02-18T10:31:07.748Z,98.74
2023-02-18T10:32:07.198Z,98.36
2023-02-18T10:33:07.174Z,98.74
2023-02-18T10:34:07.177Z,98.93
2023-02-18T10:35:07.172Z,99.02
2023-02-18T10:36:07.168Z,98.83
2023-02-18T10:37:07.165Z,99.78
2023-02-18T10:38:07.170Z,99.50
2023-02-18T10:39:07.139Z,98.93
2023-02-18T10:40:07.136Z,99.02
2023-02-18T10:41:07.526Z,98.55
2023-02-18T10:42:07.119Z,99.30
2023-02-18T10:43:07.113Z,99.11
2023-02-18T10:44:07.108Z,99.11
2023-02-18T10:45:07.099Z,99.02
2023-02-18T10:46:07.092Z,99.50
2023-02-18T10:47:07.088Z,99.78
2023-02-18T10:48:07.080Z,99.69
2023-02-18T10:49:07.079Z,99.69
2023-02-18T10:50:07.089Z,99.99
2023-02-18T10:51:07.470Z,99.99
2023-02-18T10:52:07.067Z,99.88
2023-02-18T10:53:07.045Z,99.99
2023-02-18T10:54:07.050Z,99.97
2023-02-18T10:55:07.038Z,99.99
2023-02-18T10:56:07.078Z,99.97
2023-02-18T10:57:07.029Z,99.99
2023-02-18T10:58:07.031Z,99.99
2023-02-18T10:59:07.006Z,99.99
2023-02-18T11:00:07.012Z,99.99
2023-02-18T11:01:07.349Z,99.99
2023-02-18T11:02:07.016Z,99.99
2023-02-18T11:03:08.875Z,99.99
2023-02-18T11:04:06.990Z,99.99
2023-02-18T11:05:06.968Z,99.99
2023-02-18T11:06:06.968Z,99.99
2023-02-18T11:07:06.952Z,99.99
2023-02-18T11:08:06.951Z,99.99
2023-02-18T11:09:06.951Z,99.99
2023-02-18T11:10:06.948Z,99.99
2023-02-18T11:11:07.152Z,99.99
2023-02-18T11:12:08.611Z,99.99
2023-02-18T11:13:06.913Z,99.99
2023-02-18T11:14:06.913Z,99.99
2023-02-18T11:15:06.906Z,99.99
2023-02-18T11:16:06.959Z,99.99
2023-02-18T11:17:06.885Z,99.99
2023-02-18T11:18:06.900Z,99.99
2023-02-18T11:19:06.871Z,99.99
2023-02-18T11:20:06.870Z,99.99
2023-02-18T11:21:07.398Z,99.99
2023-02-18T11:22:06.853Z,99.99
2023-02-18T11:23:06.862Z,99.99
2023-02-18T11:24:06.848Z,99.99
2023-02-18T11:25:06.845Z,99.99
2023-02-18T11:26:06.860Z,99.99
2023-02-18T11:27:06.821Z,99.99
2023-02-18T11:28:06.830Z,99.99
2023-02-18T11:29:06.813Z,99.99
2023-02-18T11:30:06.848Z,99.99
2023-02-18T11:31:07.017Z,99.99
2023-02-18T11:32:07.002Z,99.99
2023-02-18T11:33:06.785Z,99.99
2023-02-18T11:34:06.812Z,99.99
2023-02-18T11:35:06.792Z,99.99
2023-02-18T11:36:06.777Z,99.99
2023-02-18T11:37:06.815Z,99.99
2023-02-18T11:38:06.860Z,99.99
2023-02-18T11:39:06.806Z,99.99
2023-02-18T11:40:06.752Z,99.99
2023-02-18T11:41:07.113Z,99.99
2023-02-18T11:42:06.829Z,99.99
2023-02-18T11:43:06.729Z,99.99
2023-02-18T11:44:06.720Z,99.99
2023-02-18T11:45:06.718Z,99.99
2023-02-18T11:46:06.779Z,99.99
2023-02-18T11:47:06.701Z,99.99
2023-02-18T11:48:06.686Z,99.99
2023-02-18T11:49:06.708Z,99.99
2023-02-18T11:50:06.680Z,99.99
2023-02-18T11:51:07.542Z,99.99
2023-02-18T11:52:06.668Z,99.99
2023-02-18T11:53:06.667Z,99.99
2023-02-18T11:54:06.665Z,99.99
2023-02-18T11:55:06.663Z,99.99
2023-02-18T11:56:06.657Z,99.99
2023-02-18T11:57:06.628Z,99.99
2023-02-18T11:58:06.632Z,99.99
2023-02-18T11:59:06.625Z,99.99
2023-02-18T12:00:06.619Z,99.99
2023-02-18T12:01:06.816Z,99.99
2023-02-18T12:02:06.613Z,99.99
2023-02-18T12:03:06.617Z,99.99
2023-02-18T12:04:06.591Z,99.99
2023-02-18T12:05:06.661Z,99.99
2023-02-18T12:06:06.587Z,99.99
2023-02-18T12:07:06.569Z,99.99
2023-02-18T12:08:06.586Z,99.99
2023-02-18T12:09:06.584Z,99.99
2023-02-18T12:10:06.550Z,99.99
2023-02-18T12:11:06.869Z,99.99
2023-02-18T12:12:06.557Z,99.99
2023-02-18T12:13:06.539Z,99.99
2023-02-18T12:14:06.528Z,99.99
2023-02-18T12:15:06.529Z,99.99
2023-02-18T12:16:06.531Z,99.99
2023-02-18T12:17:06.510Z,99.99
2023-02-18T12:18:06.514Z,99.99
2023-02-18T12:19:06.494Z,99.99
2023-02-18T12:20:06.499Z,99.99
2023-02-18T12:21:06.846Z,99.99
2023-02-18T12:22:06.475Z,99.99
2023-02-18T12:23:06.489Z,99.99
2023-02-18T12:24:06.476Z,99.99
2023-02-18T12:25:06.452Z,99.99
2023-02-18T12:26:06.456Z,99.99
2023-02-18T12:27:06.452Z,99.99
2023-02-18T12:28:06.460Z,99.99
2023-02-18T12:29:06.433Z,99.99
2023-02-18T12:30:06.465Z,99.99
2023-02-18T12:31:06.612Z,99.99
2023-02-18T12:32:06.500Z,99.99
2023-02-18T12:33:06.419Z,99.99
2023-02-18T12:34:06.401Z,99.99
2023-02-18T12:35:06.421Z,99.99
2023-02-18T12:36:06.441Z,99.99
2023-02-18T12:37:06.403Z,99.99
2023-02-18T12:38:06.405Z,99.99
2023-02-18T12:39:06.400Z,99.99
2023-02-18T12:40:06.416Z,99.99
2023-02-18T12:41:06.500Z,99.99
2023-02-18T12:42:06.365Z,99.99
2023-02-18T12:43:06.344Z,99.99
2023-02-18T12:44:06.380Z,99.99
2023-02-18T12:45:06.359Z,99.99
2023-02-18T12:46:06.371Z,99.99
2023-02-18T12:47:06.344Z,99.99
2023-02-18T12:48:06.640Z,99.99
2023-02-18T12:49:06.311Z,99.99
2023-02-18T12:50:06.302Z,99.99
2023-02-18T12:51:06.606Z,99.99
2023-02-18T12:52:06.294Z,99.99
2023-02-18T12:53:06.291Z,99.99
2023-02-18T12:54:07.098Z,99.99
2023-02-18T12:55:06.280Z,99.99
2023-02-18T12:56:06.279Z,99.99
2023-02-18T12:57:06.271Z,99.99
2023-02-18T12:58:06.252Z,99.99
2023-02-18T12:59:06.254Z,99.99
2023-02-18T13:00:06.263Z,99.99
2023-02-18T13:01:06.287Z,99.99
2023-02-18T13:02:06.237Z,99.99
2023-02-18T13:03:06.286Z,99.99